Green Ice — C6SO4 — position and weather

sailwx.info

Track history (hours):
 
Tides and Currents Weather Stations Pressure Air Temp Water Temp Dewpoint Dewpoint Depression Visibility Wind Speed Wind Dir Waves Ship Positions

Green Ice

Last reported at 2014-Sep-17 07:33 UTC. Time now 2014-Sep-17 07:37 UTC.
Position N 53°52' E 008°43'.

Length 86 m; draft 6 m.

Type: Cargo ship. MMSI: 311411000.

Date/timePositionNaut miles runAvg speedWind from/ knotsBaromVisibWave heightAir tempDewpointWater temp
2014-Sep-17 07:33N 53°52' E 008°43'0 0.0
2014-Sep-17 06:33N 53°52' E 008°43'3 3.3
2014-Sep-17 05:33N 53°55' E 008°40'1312.6
2014-Sep-17 04:33N 53°59' E 008°20'1111.5
2014-Sep-17 03:33N 53°58' E 008°01'6211.7
2014-Sep-16 22:15N 53°37' E 006°22'812.3
2014-Sep-16 21:33N 53°36' E 006°36'1211.5
2014-Sep-16 20:32N 53°27' E 006°49'0 0.1
2014-Sep-16 19:33N 53°27' E 006°49'0 0.0
2014-Sep-16 18:33N 53°27' E 006°49'0 0.0
2014-Sep-16 17:28N 53°27' E 006°49'0 0.0
2014-Sep-16 16:33N 53°27' E 006°49'0 0.0
2014-Sep-16 15:33N 53°27' E 006°49'0 0.0
2014-Sep-16 14:33N 53°27' E 006°49'0 0.0
2014-Sep-16 13:33N 53°27' E 006°49'0 0.0
2014-Sep-16 12:33N 53°27' E 006°49'0 0.0
2014-Sep-16 11:33N 53°27' E 006°49'0 0.0
2014-Sep-16 10:33N 53°27' E 006°49'1 0.5
2014-Sep-16 09:33N 53°27' E 006°50'1210.4
2014-Sep-16 08:27N 53°35' E 006°36'1011.1
2014-Sep-16 07:32N 53°37' E 006°20'1412.2
2014-Sep-16 06:21N 53°51' E 006°19'29112.0
2014-Sep-15 06:06N 58°40' E 005°23'712.8
2014-Sep-15 05:33N 58°47' E 005°21'1313.2
2014-Sep-15 04:33N 59°00' E 005°19'1313.0
2014-Sep-15 03:33N 59°13' E 005°20'1212.0
2014-Sep-15 02:33N 59°25' E 005°15'  
2014-Sep-12 18:33N 64°52' E 011°17'9411.7
2014-Sep-12 10:28N 66°17' E 012°56'1112.2
2014-Sep-12 09:33N 66°28' E 012°59'  
2014-Sep-08 17:22N 70°26' E 031°05'  
Track history (hours):
 
Tides and Currents Weather Stations Pressure Air Temp Water Temp Dewpoint Dewpoint Depression Visibility Wind Speed Wind Dir Waves Ship Positions

Green Ice

Last reported at 2014-Sep-17 07:33 UTC. Time now 2014-Sep-17 07:37 UTC.
Position N 53°52' E 008°43'.

Length 86 m; draft 6 m.

Type: Cargo ship. MMSI: 311411000.

Date/timePositionNaut miles runAvg speedWind from/ knotsBaromVisibWave heightAir tempDewpointWater temp
2014-Sep-17 07:33N 53°52' E 008°43'0 0.0
2014-Sep-17 06:33N 53°52' E 008°43'3 3.3
2014-Sep-17 05:33N 53°55' E 008°40'1312.6
2014-Sep-17 04:33N 53°59' E 008°20'1111.5
2014-Sep-17 03:33N 53°58' E 008°01'6211.7
2014-Sep-16 22:15N 53°37' E 006°22'812.3
2014-Sep-16 21:33N 53°36' E 006°36'1211.5
2014-Sep-16 20:32N 53°27' E 006°49'0 0.1
2014-Sep-16 19:33N 53°27' E 006°49'0 0.0
2014-Sep-16 18:33N 53°27' E 006°49'0 0.0
2014-Sep-16 17:28N 53°27' E 006°49'0 0.0
2014-Sep-16 16:33N 53°27' E 006°49'0 0.0
2014-Sep-16 15:33N 53°27' E 006°49'0 0.0
2014-Sep-16 14:33N 53°27' E 006°49'0 0.0
2014-Sep-16 13:33N 53°27' E 006°49'0 0.0
2014-Sep-16 12:33N 53°27' E 006°49'0 0.0
2014-Sep-16 11:33N 53°27' E 006°49'0 0.0
2014-Sep-16 10:33N 53°27' E 006°49'1 0.5
2014-Sep-16 09:33N 53°27' E 006°50'1210.4
2014-Sep-16 08:27N 53°35' E 006°36'1011.1
2014-Sep-16 07:32N 53°37' E 006°20'1412.2
2014-Sep-16 06:21N 53°51' E 006°19'29112.0
2014-Sep-15 06:06N 58°40' E 005°23'712.8
2014-Sep-15 05:33N 58°47' E 005°21'1313.2
2014-Sep-15 04:33N 59°00' E 005°19'1313.0
2014-Sep-15 03:33N 59°13' E 005°20'1212.0
2014-Sep-15 02:33N 59°25' E 005°15'  
2014-Sep-12 18:33N 64°52' E 011°17'9411.7
2014-Sep-12 10:28N 66°17' E 012°56'1112.2
2014-Sep-12 09:33N 66°28' E 012°59'  
2014-Sep-08 17:22N 70°26' E 031°05'  

Dump ship's entire track history